Terminal Aerodrome Forecast
Issued by NWS Northern Indiana

Home | Current Version | Previous Version | Graphics & Text | Print | Product List | Glossary On
Versions: 1 2 3 4 5 6 7 8 9 10 11 12 13 14 15 16 17 18 19
978
FTUS43 KIWX 210228 AAA
TAFFWA
TAF AMD
KFWA 210228Z 2102/2124 10011KT P6SM OVC006
     FM210330 13008KT 5SM -TSRA BR OVC015CB
      TEMPO 2104/2105 2SM TSRA BR OVC008CB
     FM210600 14009KT 3SM -SHRA BR SCT008 OVC015
     FM210800 16006KT 5SM -SHRA BR OVC020
     FM211400 22009KT P6SM VCSH BKN020
     FM211700 24010KT P6SM SCT030=

USA.gov is the U.S. government's official web portal to all federal, state and local government web resources and services.